createdAt,value
2019-05-18T00:05:38.839Z,12.20
2019-05-18T06:27:58.314Z,15.80
2019-05-18T06:30:49.641Z,16.00
2019-05-18T06:33:40.330Z,16.30
2019-05-18T06:36:18.712Z,16.60
2019-05-18T06:44:29.295Z,17.00
2019-05-18T06:47:07.016Z,17.10
2019-05-18T06:49:57.360Z,17.20
2019-05-18T06:52:40.989Z,17.50
2019-05-18T06:55:30.351Z,17.60
2019-05-18T06:58:09.625Z,17.70
2019-05-18T07:00:41.629Z,17.80
2019-05-18T07:03:21.815Z,17.90
2019-05-18T07:06:03.301Z,18.00
2019-05-18T07:08:37.717Z,18.30
2019-05-18T07:11:10.650Z,18.40
2019-05-18T07:13:58.596Z,18.30
2019-05-18T07:17:15.201Z,18.30
2019-05-18T07:25:33.080Z,18.80
2019-05-18T07:28:02.993Z,19.20
2019-05-18T07:30:33.705Z,19.20
2019-05-18T07:33:05.066Z,19.30
2019-05-18T07:35:34.814Z,19.30
2019-05-18T07:38:06.880Z,19.20
2019-05-18T07:40:48.820Z,19.20
2019-05-18T07:43:58.288Z,19.20
2019-05-18T07:52:35.839Z,19.80
2019-05-18T07:55:08.610Z,19.80
2019-05-18T07:57:40.867Z,20.10
2019-05-18T08:00:16.397Z,20.30
2019-05-18T08:03:07.279Z,20.50
2019-05-18T08:05:44.520Z,20.50
2019-05-18T08:11:33.692Z,20.40
2019-05-18T08:14:04.612Z,20.50
2019-05-18T08:16:36.129Z,20.70
2019-05-18T08:19:06.112Z,20.80
2019-05-18T08:21:35.875Z,20.80
2019-05-18T08:24:05.787Z,21.00
2019-05-18T08:26:37.283Z,21.00
2019-05-18T08:32:10.638Z,21.30
2019-05-18T08:35:05.152Z,21.50
2019-05-18T08:40:57.700Z,21.30
2019-05-18T08:43:37.612Z,21.50
2019-05-18T08:46:28.382Z,21.60
2019-05-18T08:49:10.933Z,21.70
2019-05-18T08:51:46.434Z,21.90
2019-05-18T08:54:16.159Z,22.00
2019-05-18T08:56:45.948Z,22.00
2019-05-18T08:59:15.729Z,22.10
2019-05-18T09:01:55.841Z,22.40
2019-05-18T09:04:25.668Z,22.20
2019-05-18T09:06:56.685Z,22.30
2019-05-18T09:09:26.603Z,22.40
2019-05-18T09:11:56.436Z,22.40
2019-05-18T09:14:28.131Z,22.40
2019-05-18T09:16:58.014Z,22.50
2019-05-18T09:19:29.347Z,22.50
2019-05-18T09:21:59.302Z,22.60
2019-05-18T09:24:29.280Z,22.70
2019-05-18T09:26:59.058Z,22.80
2019-05-18T09:29:29.665Z,22.70
2019-05-18T09:31:59.513Z,22.50
2019-05-18T09:34:34.821Z,22.30
2019-05-18T09:37:08.703Z,22.10
2019-05-18T09:40:12.775Z,22.40
2019-05-18T09:42:40.627Z,22.20
2019-05-18T09:45:30.361Z,22.20
2019-05-18T09:51:03.095Z,22.10
2019-05-18T09:56:56.606Z,21.80
2019-05-18T09:59:26.551Z,21.90
2019-05-18T10:02:04.000Z,21.90
2019-05-18T10:04:37.438Z,22.10
2019-05-18T10:07:20.587Z,22.20
2019-05-18T10:09:50.298Z,21.90
2019-05-18T10:12:26.310Z,22.20
2019-05-18T10:17:53.849Z,22.40
2019-05-18T10:26:08.105Z,22.90
2019-05-18T10:28:38.282Z,22.90
2019-05-18T10:31:08.155Z,23.20
2019-05-18T10:33:39.622Z,22.90
2019-05-18T10:36:11.973Z,22.90
2019-05-18T10:41:33.756Z,23.10
2019-05-18T10:44:09.816Z,22.80
2019-05-18T10:46:44.235Z,23.10
2019-05-18T10:49:37.834Z,23.20
2019-05-18T10:52:07.659Z,23.30
2019-05-18T10:54:41.992Z,23.10
2019-05-18T10:57:14.550Z,23.40
2019-05-18T10:59:53.649Z,23.10
2019-05-18T11:02:23.510Z,23.10
2019-05-18T11:04:53.504Z,22.80
2019-05-18T11:07:42.734Z,22.70
2019-05-18T11:10:19.734Z,22.50
2019-05-18T11:12:50.361Z,22.60
2019-05-18T11:15:21.608Z,22.70
2019-05-18T11:17:53.372Z,22.70
2019-05-18T11:20:26.096Z,22.90
2019-05-18T11:22:56.924Z,22.90
2019-05-18T11:25:26.985Z,23.00
2019-05-18T11:27:58.496Z,22.80
2019-05-18T11:30:31.637Z,22.80
2019-05-18T11:33:05.163Z,22.80
2019-05-18T11:35:37.318Z,22.80
2019-05-18T11:38:10.538Z,22.70
2019-05-18T11:40:41.077Z,22.80
2019-05-18T11:43:10.783Z,22.80
2019-05-18T11:45:40.499Z,22.60
2019-05-18T11:48:10.327Z,22.60
2019-05-18T11:50:42.967Z,22.40
2019-05-18T11:53:12.979Z,22.40
2019-05-18T11:55:43.814Z,22.40
2019-05-18T11:58:13.455Z,22.40
2019-05-18T12:00:43.246Z,22.50
2019-05-18T12:03:13.089Z,22.40
2019-05-18T12:05:43.215Z,22.10
2019-05-18T12:08:13.201Z,22.30
2019-05-18T12:10:43.626Z,22.30
2019-05-18T12:13:13.440Z,22.20
2019-05-18T12:15:43.334Z,22.30
2019-05-18T12:18:13.226Z,22.20
2019-05-18T12:20:43.345Z,22.10
2019-05-18T12:23:13.282Z,22.20
2019-05-18T12:25:43.019Z,22.10
2019-05-18T12:28:12.877Z,22.10
2019-05-18T12:30:42.752Z,21.90
2019-05-18T12:33:13.483Z,21.80
2019-05-18T12:35:43.192Z,21.70
2019-05-18T12:38:13.051Z,21.60
2019-05-18T12:40:42.866Z,21.70
2019-05-18T12:43:12.656Z,21.70
2019-05-18T12:45:42.488Z,21.70
2019-05-18T12:48:12.605Z,21.80
2019-05-18T12:50:42.524Z,21.60
2019-05-18T12:53:15.947Z,21.70
2019-05-18T12:55:45.689Z,21.70
2019-05-18T12:58:15.428Z,21.70
2019-05-18T13:00:45.196Z,21.80
2019-05-18T13:03:15.017Z,21.80
2019-05-18T13:05:44.726Z,22.00
2019-05-18T13:08:14.369Z,22.10
2019-05-18T13:10:44.129Z,22.20
2019-05-18T13:13:14.239Z,22.20
2019-05-18T13:15:44.056Z,22.20
2019-05-18T13:18:13.871Z,22.30
2019-05-18T13:20:43.490Z,22.50
2019-05-18T13:23:13.364Z,22.70
2019-05-18T13:25:43.094Z,22.70
2019-05-18T13:28:12.771Z,22.80
2019-05-18T13:30:42.791Z,22.80
2019-05-18T13:33:12.611Z,22.70
2019-05-18T13:35:45.437Z,22.70
2019-05-18T13:38:13.827Z,22.80
2019-05-18T13:40:43.515Z,22.90
2019-05-18T13:43:15.114Z,23.00
2019-05-18T13:45:44.898Z,23.10
2019-05-18T13:48:14.518Z,23.00
2019-05-18T13:50:44.858Z,23.00
2019-05-18T13:53:14.678Z,23.00
2019-05-18T13:55:44.285Z,23.10
2019-05-18T13:58:14.170Z,23.20
2019-05-18T14:00:44.079Z,23.30
2019-05-18T14:03:13.746Z,23.40
2019-05-18T14:05:43.437Z,23.40
2019-05-18T14:08:15.827Z,23.40
2019-05-18T14:10:44.588Z,23.30
2019-05-18T14:13:14.260Z,23.30
2019-05-18T14:15:44.208Z,23.30
2019-05-18T14:18:13.858Z,23.20
2019-05-18T14:20:43.526Z,23.10
2019-05-18T14:23:13.247Z,23.10
2019-05-18T14:25:45.970Z,23.10
2019-05-18T14:28:14.391Z,23.00
2019-05-18T14:30:44.245Z,22.90
2019-05-18T14:33:13.900Z,22.90
2019-05-18T14:35:43.744Z,22.80
2019-05-18T14:38:13.529Z,22.70
2019-05-18T14:40:43.391Z,22.60
2019-05-18T14:43:13.032Z,22.60
2019-05-18T14:45:42.827Z,22.50
2019-05-18T14:48:12.641Z,22.40
2019-05-18T14:50:43.177Z,22.20
2019-05-18T14:53:14.824Z,22.10
2019-05-18T14:55:44.587Z,22.10
2019-05-18T14:58:14.305Z,22.10
2019-05-18T15:00:44.026Z,22.10
2019-05-18T15:03:14.658Z,22.00
2019-05-18T15:05:44.325Z,22.00
2019-05-18T15:08:14.339Z,22.00
2019-05-18T15:10:44.128Z,22.00
2019-05-18T15:13:15.318Z,21.90
2019-05-18T15:15:45.019Z,22.00
2019-05-18T15:18:14.658Z,22.00
2019-05-18T15:20:44.300Z,22.00
2019-05-18T15:23:13.872Z,22.10
2019-05-18T15:25:50.659Z,22.10
2019-05-18T15:28:15.092Z,22.00
2019-05-18T15:30:44.803Z,22.00
2019-05-18T15:33:14.402Z,22.00
2019-05-18T15:35:44.135Z,22.00
2019-05-18T15:38:13.759Z,22.00
2019-05-18T15:40:43.677Z,22.00
2019-05-18T15:43:13.334Z,21.90
2019-05-18T15:45:43.037Z,22.00
2019-05-18T15:48:12.814Z,22.00
2019-05-18T15:50:42.439Z,22.00
2019-05-18T15:53:12.163Z,22.00
2019-05-18T15:55:41.811Z,22.00
2019-05-18T15:58:11.498Z,21.90
2019-05-18T16:00:41.233Z,21.90
2019-05-18T16:03:10.943Z,21.90
2019-05-18T16:05:40.749Z,21.80
2019-05-18T16:08:10.528Z,21.80
2019-05-18T16:10:40.257Z,21.80
2019-05-18T16:13:09.980Z,21.70
2019-05-18T16:15:39.745Z,21.80
2019-05-18T16:18:09.555Z,21.70
2019-05-18T16:20:39.246Z,21.70
2019-05-18T16:23:09.262Z,21.60
2019-05-18T16:25:39.043Z,21.60
2019-05-18T16:28:08.760Z,21.60
2019-05-18T16:30:38.386Z,21.60
2019-05-18T16:33:08.126Z,21.60
2019-05-18T16:35:37.845Z,21.50
2019-05-18T16:38:07.501Z,21.50
2019-05-18T16:40:37.234Z,21.50
2019-05-18T16:43:06.937Z,21.50
2019-05-18T16:45:36.637Z,21.50
2019-05-18T16:48:06.350Z,21.40
2019-05-18T16:50:36.038Z,21.40
2019-05-18T16:53:15.561Z,21.40
2019-05-18T16:55:45.275Z,21.40
2019-05-18T16:58:14.950Z,21.40
2019-05-18T17:00:44.699Z,21.40
2019-05-18T17:07:13.213Z,21.40
2019-05-18T17:09:42.854Z,21.30
2019-05-18T17:12:12.499Z,21.30
2019-05-18T17:14:42.328Z,21.40
2019-05-18T17:17:12.124Z,21.40
2019-05-18T17:19:41.859Z,21.30
2019-05-18T17:22:11.552Z,21.40
2019-05-18T17:24:41.383Z,21.40
2019-05-18T17:27:11.114Z,21.50
2019-05-18T17:29:40.805Z,21.50
2019-05-18T17:32:10.449Z,21.50
2019-05-18T17:34:40.176Z,21.50
2019-05-18T17:37:09.898Z,21.50
2019-05-18T17:39:39.575Z,21.50
2019-05-18T17:42:09.372Z,21.50
2019-05-18T17:44:39.216Z,21.50
2019-05-18T17:47:08.928Z,21.50
2019-05-18T17:49:38.539Z,21.40
2019-05-18T17:52:08.191Z,21.40
2019-05-18T17:54:37.878Z,21.30
2019-05-18T17:57:09.033Z,21.30
2019-05-18T17:59:39.149Z,21.30
2019-05-18T18:02:08.886Z,21.20
2019-05-18T18:04:38.631Z,21.00
2019-05-18T18:07:08.413Z,21.00
2019-05-18T18:09:38.256Z,21.00
2019-05-18T18:12:07.867Z,20.80
2019-05-18T18:14:37.505Z,20.70
2019-05-18T18:17:07.292Z,20.70
2019-05-18T18:19:36.924Z,20.50
2019-05-18T18:22:06.732Z,20.50
2019-05-18T18:24:36.490Z,20.40
2019-05-18T18:27:06.667Z,20.50
2019-05-18T18:29:36.405Z,20.30
2019-05-18T18:32:06.209Z,20.20
2019-05-18T18:34:36.446Z,20.10
2019-05-18T18:39:50.358Z,20.10
2019-05-18T18:44:54.616Z,19.90
2019-05-18T18:47:26.082Z,19.80
2019-05-18T18:49:56.829Z,19.80
2019-05-18T18:52:31.499Z,19.70
2019-05-18T18:55:00.090Z,19.60
2019-05-18T18:57:40.625Z,19.60
2019-05-18T19:00:07.828Z,19.50
2019-05-18T19:02:37.646Z,19.40
2019-05-18T19:05:08.474Z,19.30
2019-05-18T19:07:38.242Z,19.30
2019-05-18T19:10:08.752Z,19.20
2019-05-18T19:12:38.735Z,19.10
2019-05-18T19:15:09.725Z,19.10
2019-05-18T19:17:39.467Z,19.10
2019-05-18T19:20:09.882Z,19.00
2019-05-18T19:22:39.679Z,19.00
2019-05-18T19:25:10.470Z,19.00
2019-05-18T19:27:52.705Z,18.90
2019-05-18T19:30:12.289Z,18.80
2019-05-18T19:32:42.045Z,18.80
2019-05-18T19:35:25.660Z,18.70
2019-05-18T19:37:55.358Z,18.60
2019-05-18T19:40:25.080Z,18.50
2019-05-18T19:42:54.795Z,18.50
2019-05-18T19:45:24.649Z,18.50
2019-05-18T19:47:54.481Z,18.40
2019-05-18T19:50:24.541Z,18.40
2019-05-18T19:52:54.358Z,18.30
2019-05-18T19:55:24.242Z,18.30
2019-05-18T19:57:53.963Z,18.20
2019-05-18T20:00:24.510Z,18.20
2019-05-18T20:02:54.490Z,18.10
2019-05-18T20:05:25.425Z,18.10
2019-05-18T20:07:55.257Z,18.10
2019-05-18T20:10:25.040Z,18.00
2019-05-18T20:12:54.780Z,18.00
2019-05-18T20:15:24.550Z,17.90
2019-05-18T20:17:54.331Z,18.00
2019-05-18T20:20:24.125Z,17.90
2019-05-18T20:22:53.923Z,17.90
2019-05-18T20:25:23.558Z,17.90
2019-05-18T20:27:53.258Z,17.80
2019-05-18T20:30:23.201Z,17.80
2019-05-18T20:32:52.848Z,17.70
2019-05-18T20:35:25.676Z,17.70
2019-05-18T20:37:54.094Z,17.70
2019-05-18T20:40:23.780Z,17.70
2019-05-18T20:42:53.394Z,17.70
2019-05-18T20:45:23.322Z,17.60
2019-05-18T20:47:53.045Z,17.60
2019-05-18T20:50:22.759Z,17.60
2019-05-18T20:52:52.576Z,17.60
2019-05-18T20:55:22.317Z,17.50
2019-05-18T20:57:52.094Z,17.50
2019-05-18T21:00:22.214Z,17.40
2019-05-18T21:02:51.904Z,17.40
2019-05-18T21:05:21.966Z,17.40
2019-05-18T21:07:51.872Z,17.40
2019-05-18T21:10:21.646Z,17.30
2019-05-18T21:12:52.312Z,17.30
2019-05-18T21:15:22.377Z,17.30
2019-05-18T21:17:52.091Z,17.20
2019-05-18T21:20:21.912Z,17.20
2019-05-18T21:22:51.613Z,17.20
2019-05-18T21:25:21.425Z,17.10
2019-05-18T21:27:51.222Z,17.10
2019-05-18T21:30:21.254Z,17.10
2019-05-18T21:32:51.126Z,17.00
2019-05-18T21:35:20.894Z,17.00
2019-05-18T21:37:50.572Z,17.00
2019-05-18T21:40:20.391Z,16.90
2019-05-18T21:42:50.111Z,16.80
2019-05-18T21:45:20.046Z,16.80
2019-05-18T21:47:49.757Z,16.80
2019-05-18T21:50:19.470Z,16.80
2019-05-18T21:52:49.211Z,16.80
2019-05-18T21:55:19.006Z,16.70
2019-05-18T21:57:48.911Z,16.70
2019-05-18T22:00:20.847Z,16.60
2019-05-18T22:02:52.000Z,16.60
2019-05-18T22:05:21.708Z,16.60
2019-05-18T22:07:51.510Z,16.60
2019-05-18T22:10:25.903Z,16.50
2019-05-18T22:12:53.171Z,16.50
2019-05-18T22:15:23.178Z,16.50
2019-05-18T22:18:04.577Z,16.50
2019-05-18T22:20:43.118Z,16.50
2019-05-18T22:23:08.151Z,16.50
2019-05-18T22:25:37.905Z,16.50
2019-05-18T22:28:07.795Z,16.50
2019-05-18T22:30:37.498Z,16.50
2019-05-18T22:33:07.209Z,16.50
2019-05-18T22:35:37.543Z,16.50
2019-05-18T22:38:07.338Z,16.50
2019-05-18T22:40:37.073Z,16.50
2019-05-18T22:43:06.827Z,16.40
2019-05-18T22:45:36.853Z,16.40
2019-05-18T22:48:06.649Z,16.40
2019-05-18T22:50:36.363Z,16.40
2019-05-18T22:53:06.162Z,16.30
2019-05-18T22:55:36.153Z,16.30
2019-05-18T22:58:05.884Z,16.30
2019-05-18T23:00:35.692Z,16.30
2019-05-18T23:03:05.443Z,16.30
2019-05-18T23:05:35.177Z,16.30
2019-05-18T23:08:05.482Z,16.30
2019-05-18T23:10:36.872Z,16.30
2019-05-18T23:13:07.394Z,16.30
2019-05-18T23:15:37.689Z,16.20
2019-05-18T23:18:07.355Z,16.20
2019-05-18T23:20:36.980Z,16.20
2019-05-18T23:23:06.675Z,16.20
2019-05-18T23:25:36.375Z,16.20
2019-05-18T23:28:06.018Z,16.10
2019-05-18T23:30:35.636Z,16.10
2019-05-18T23:33:05.385Z,16.10
2019-05-18T23:35:35.438Z,16.10
2019-05-18T23:38:05.145Z,16.10
2019-05-18T23:40:34.832Z,16.10
2019-05-18T23:43:04.527Z,16.10
2019-05-18T23:45:35.096Z,16.00
2019-05-18T23:48:04.797Z,16.00
2019-05-18T23:50:34.516Z,16.00
2019-05-18T23:54:14.883Z,16.00
2019-05-18T23:56:44.613Z,16.00
2019-05-18T23:59:14.327Z,15.90
